createdAt,value
2018-07-25T00:01:49.405Z,99.90
2018-07-25T00:04:17.582Z,99.90
2018-07-25T00:06:45.725Z,99.90
2018-07-25T00:09:13.878Z,99.90
2018-07-25T00:11:42.051Z,99.90
2018-07-25T00:14:10.202Z,99.90
2018-07-25T00:16:38.380Z,99.90
2018-07-25T00:19:06.532Z,99.90
2018-07-25T00:21:34.704Z,99.90
2018-07-25T00:24:02.830Z,99.90
2018-07-25T00:26:30.974Z,99.90
2018-07-25T00:28:59.130Z,99.90
2018-07-25T00:31:27.262Z,99.90
2018-07-25T00:33:55.414Z,99.90
2018-07-25T00:36:23.635Z,99.90
2018-07-25T00:38:51.784Z,99.90
2018-07-25T00:41:19.955Z,99.90
2018-07-25T00:43:48.091Z,99.90
2018-07-25T00:46:16.250Z,99.90
2018-07-25T00:48:44.370Z,99.90
2018-07-25T00:51:12.511Z,99.90
2018-07-25T00:53:40.648Z,99.90
2018-07-25T00:56:08.965Z,99.90
2018-07-25T00:58:37.118Z,99.90
2018-07-25T01:01:05.344Z,99.90
2018-07-25T01:03:33.572Z,99.90
2018-07-25T01:06:01.721Z,99.90
2018-07-25T01:08:29.891Z,99.90
2018-07-25T01:10:58.038Z,99.90
2018-07-25T01:13:26.189Z,99.90
2018-07-25T01:15:54.357Z,99.90
2018-07-25T01:18:22.511Z,99.90
2018-07-25T01:20:50.666Z,99.90
2018-07-25T01:25:46.736Z,99.90
2018-07-25T01:28:14.881Z,99.90
2018-07-25T01:30:43.070Z,99.90
2018-07-25T01:33:11.220Z,99.90
2018-07-25T01:35:39.404Z,99.90
2018-07-25T01:38:07.560Z,99.90
2018-07-25T01:40:35.713Z,99.90
2018-07-25T01:43:03.952Z,99.90
2018-07-25T01:45:32.122Z,99.90
2018-07-25T01:48:00.286Z,99.90
2018-07-25T01:50:28.447Z,99.90
2018-07-25T01:52:56.605Z,99.90
2018-07-25T01:55:24.757Z,99.90
2018-07-25T01:57:52.977Z,99.90
2018-07-25T02:00:21.128Z,99.90
2018-07-25T02:02:49.266Z,99.90
2018-07-25T02:05:17.406Z,99.90
2018-07-25T02:07:45.564Z,99.90
2018-07-25T02:10:13.713Z,99.90
2018-07-25T02:12:41.862Z,99.90
2018-07-25T02:15:10.005Z,99.90
2018-07-25T02:17:38.149Z,99.90
2018-07-25T02:20:06.300Z,99.90
2018-07-25T02:22:34.455Z,99.90
2018-07-25T02:25:02.616Z,99.90
2018-07-25T02:27:30.764Z,99.90
2018-07-25T02:29:58.909Z,99.90
2018-07-25T02:32:27.069Z,99.90
2018-07-25T02:34:55.197Z,99.90
2018-07-25T02:37:23.349Z,99.90
2018-07-25T02:39:51.497Z,99.90
2018-07-25T02:42:19.727Z,99.90
2018-07-25T02:44:47.783Z,99.90
2018-07-25T02:47:15.924Z,99.90
2018-07-25T02:49:44.053Z,99.90
2018-07-25T02:52:12.197Z,99.90
2018-07-25T02:54:40.329Z,99.90
2018-07-25T02:57:08.460Z,99.90
2018-07-25T02:59:36.612Z,99.90
2018-07-25T03:02:04.749Z,99.90
2018-07-25T03:04:32.906Z,99.90
2018-07-25T03:07:01.033Z,99.90
2018-07-25T03:09:29.211Z,99.90
2018-07-25T03:11:57.356Z,99.90
2018-07-25T03:14:25.563Z,99.90
2018-07-25T03:16:53.670Z,99.90
2018-07-25T03:19:21.809Z,99.90
2018-07-25T03:21:49.958Z,99.90
2018-07-25T03:24:18.109Z,99.90
2018-07-25T03:26:46.256Z,99.90
2018-07-25T03:29:14.400Z,99.90
2018-07-25T03:31:42.550Z,99.90
2018-07-25T03:34:10.700Z,99.90
2018-07-25T03:36:38.849Z,99.90
2018-07-25T03:39:07.175Z,99.90
2018-07-25T03:41:35.321Z,99.90
2018-07-25T03:44:03.471Z,99.90
2018-07-25T03:46:31.613Z,99.90
2018-07-25T03:48:59.760Z,99.90
2018-07-25T03:51:27.905Z,99.90
2018-07-25T03:53:56.057Z,99.90
2018-07-25T03:56:24.186Z,99.90
2018-07-25T03:58:52.328Z,99.90
2018-07-25T04:01:20.505Z,99.90
2018-07-25T04:03:48.654Z,99.90
2018-07-25T04:06:16.807Z,99.90
2018-07-25T04:08:44.965Z,99.90
2018-07-25T04:11:13.110Z,99.90
2018-07-25T04:13:41.260Z,99.90
2018-07-25T04:16:09.437Z,99.90
2018-07-25T04:18:37.590Z,99.90
2018-07-25T04:21:05.762Z,99.90
2018-07-25T04:23:33.914Z,99.90
2018-07-25T04:26:02.089Z,99.90
2018-07-25T04:28:30.232Z,99.90
2018-07-25T04:30:58.390Z,99.90
2018-07-25T04:33:26.554Z,99.90
2018-07-25T04:35:54.713Z,99.90
2018-07-25T04:38:22.869Z,99.90
2018-07-25T04:40:51.033Z,99.90
2018-07-25T04:43:19.173Z,99.90
2018-07-25T04:45:47.346Z,99.90
2018-07-25T04:48:15.516Z,99.90
2018-07-25T04:50:44.071Z,99.90
2018-07-25T04:53:12.222Z,99.90
2018-07-25T04:55:40.404Z,99.90
2018-07-25T04:58:08.576Z,99.90
2018-07-25T05:00:36.736Z,99.90
2018-07-25T05:03:04.957Z,99.90
2018-07-25T05:05:33.121Z,99.90
2018-07-25T05:08:01.271Z,99.90
2018-07-25T05:10:29.445Z,99.90
2018-07-25T05:12:57.592Z,99.90
2018-07-25T05:15:25.778Z,99.90
2018-07-25T05:17:53.914Z,99.90
2018-07-25T05:20:22.061Z,99.90
2018-07-25T05:22:50.225Z,99.90
2018-07-25T05:25:18.426Z,99.90
2018-07-25T05:27:46.588Z,99.90
2018-07-25T05:30:14.823Z,99.90
2018-07-25T05:32:42.903Z,99.90
2018-07-25T05:35:11.040Z,99.90
2018-07-25T05:37:39.228Z,99.90
2018-07-25T05:40:07.439Z,99.90
2018-07-25T05:42:35.613Z,99.90
2018-07-25T05:45:04.476Z,99.90
2018-07-25T05:47:32.640Z,99.90
2018-07-25T05:50:00.797Z,99.90
2018-07-25T05:52:28.988Z,99.90
2018-07-25T05:54:57.173Z,99.90
2018-07-25T05:57:25.345Z,99.90
2018-07-25T05:59:53.503Z,99.90
2018-07-25T06:02:21.676Z,99.90
2018-07-25T06:04:49.855Z,99.90
2018-07-25T06:07:18.007Z,99.90
2018-07-25T06:09:46.162Z,99.90
2018-07-25T06:12:14.331Z,99.90
2018-07-25T06:14:42.504Z,99.90
2018-07-25T06:17:10.701Z,99.90
2018-07-25T06:19:38.848Z,99.90
2018-07-25T06:22:07.012Z,99.90
2018-07-25T06:24:35.160Z,99.90
2018-07-25T06:27:03.330Z,99.90
2018-07-25T06:29:31.480Z,99.90
2018-07-25T06:31:59.624Z,99.90
2018-07-25T06:36:55.732Z,99.90
2018-07-25T06:39:23.884Z,99.90
2018-07-25T06:41:52.043Z,99.90
2018-07-25T06:44:20.183Z,99.90
2018-07-25T06:46:48.345Z,99.90
2018-07-25T06:49:16.480Z,99.90
2018-07-25T06:51:44.668Z,99.90
2018-07-25T06:54:12.821Z,99.90
2018-07-25T06:56:40.972Z,99.90
2018-07-25T06:59:09.121Z,99.90
2018-07-25T07:01:37.274Z,99.90
2018-07-25T07:04:05.460Z,99.90
2018-07-25T07:06:33.629Z,99.90
2018-07-25T07:09:01.742Z,99.90
2018-07-25T07:11:29.884Z,99.90
2018-07-25T07:13:58.037Z,99.90
2018-07-25T07:16:26.176Z,99.90
2018-07-25T07:18:54.305Z,99.90
2018-07-25T07:21:22.506Z,99.90
2018-07-25T07:23:50.686Z,99.90
2018-07-25T07:26:18.820Z,99.90
2018-07-25T07:28:46.978Z,99.90
2018-07-25T07:31:15.139Z,99.90
2018-07-25T07:33:43.300Z,99.90
2018-07-25T07:36:11.517Z,99.90
2018-07-25T07:38:39.613Z,99.90
2018-07-25T07:41:07.777Z,99.90
2018-07-25T07:43:35.909Z,99.90
2018-07-25T07:46:04.050Z,99.90
2018-07-25T07:48:32.200Z,99.90
2018-07-25T07:51:00.336Z,99.90
2018-07-25T07:53:28.472Z,99.90
2018-07-25T07:55:56.630Z,99.90
2018-07-25T07:58:24.753Z,99.90
2018-07-25T08:00:52.904Z,99.90
2018-07-25T08:03:21.036Z,99.90
2018-07-25T08:05:49.176Z,99.90
2018-07-25T08:08:17.320Z,99.90
2018-07-25T08:10:45.508Z,99.90
2018-07-25T08:13:13.608Z,99.90
2018-07-25T08:15:41.761Z,99.90
2018-07-25T08:18:09.936Z,99.90
2018-07-25T08:20:38.159Z,99.90
2018-07-25T08:23:06.321Z,99.90
2018-07-25T08:25:34.566Z,99.90
2018-07-25T08:28:02.722Z,99.90
2018-07-25T08:30:30.892Z,99.90
2018-07-25T08:32:59.044Z,99.90
2018-07-25T08:35:27.208Z,99.90
2018-07-25T08:37:55.369Z,99.90
2018-07-25T08:40:23.604Z,99.90
2018-07-25T08:42:51.763Z,99.90
2018-07-25T08:45:19.922Z,99.90
2018-07-25T08:47:48.076Z,99.90
2018-07-25T08:50:16.229Z,99.90
2018-07-25T08:52:44.503Z,99.90
2018-07-25T08:55:12.593Z,99.90
2018-07-25T08:57:40.779Z,99.90
2018-07-25T09:00:08.924Z,99.90
2018-07-25T09:02:37.083Z,99.90
2018-07-25T09:05:05.218Z,99.90
2018-07-25T09:07:33.395Z,99.90
2018-07-25T09:10:01.488Z,99.90
2018-07-25T09:12:29.613Z,99.90
2018-07-25T09:14:57.764Z,99.90
2018-07-25T09:17:25.951Z,99.60
2018-07-25T09:19:54.148Z,96.50
2018-07-25T09:22:22.216Z,95.50
2018-07-25T09:24:50.396Z,96.60
2018-07-25T09:27:18.536Z,95.90
2018-07-25T09:29:46.683Z,95.10
2018-07-25T09:32:14.840Z,92.80
2018-07-25T09:34:42.989Z,92.70
2018-07-25T09:37:11.199Z,92.10
2018-07-25T09:39:39.340Z,90.10
2018-07-25T09:42:07.496Z,90.50
2018-07-25T09:44:35.645Z,85.80
2018-07-25T09:47:03.789Z,89.10
2018-07-25T09:49:31.937Z,85.60
2018-07-25T09:52:00.094Z,86.40
2018-07-25T09:54:28.237Z,87.10
2018-07-25T09:56:56.387Z,91.30
2018-07-25T09:59:24.505Z,87.60
2018-07-25T10:01:52.664Z,82.60
2018-07-25T10:04:20.777Z,85.70
2018-07-25T10:06:48.917Z,85.80
2018-07-25T10:09:17.103Z,86.30
2018-07-25T10:11:45.220Z,81.70
2018-07-25T10:14:13.373Z,79.30
2018-07-25T10:16:41.609Z,73.40
2018-07-25T10:19:09.750Z,72.00
2018-07-25T10:21:37.898Z,74.10
2018-07-25T10:24:06.073Z,74.20
2018-07-25T10:26:34.209Z,68.80
2018-07-25T10:29:02.328Z,66.50
2018-07-25T10:31:30.460Z,66.30
2018-07-25T10:33:58.625Z,64.30
2018-07-25T10:36:26.770Z,62.50
2018-07-25T10:38:54.945Z,64.80
2018-07-25T10:41:23.061Z,64.00
2018-07-25T10:43:51.225Z,65.30
2018-07-25T10:46:19.380Z,64.30
2018-07-25T10:48:47.563Z,65.60
2018-07-25T10:51:15.685Z,61.40
2018-07-25T10:53:43.817Z,60.70
2018-07-25T10:56:11.982Z,59.80
2018-07-25T10:58:40.123Z,61.10
2018-07-25T11:01:08.427Z,61.10
2018-07-25T11:03:36.551Z,62.10
2018-07-25T11:06:04.685Z,59.30
2018-07-25T11:08:32.818Z,61.40
2018-07-25T11:11:01.001Z,61.80
2018-07-25T11:13:29.137Z,61.20
2018-07-25T11:15:57.278Z,61.00
2018-07-25T11:18:25.405Z,59.20
2018-07-25T11:20:53.556Z,60.50
2018-07-25T11:23:21.670Z,58.40
2018-07-25T11:25:49.801Z,59.40
2018-07-25T11:28:17.916Z,58.80
2018-07-25T11:30:46.050Z,60.80
2018-07-25T11:33:14.177Z,59.20
2018-07-25T11:35:42.303Z,60.70
2018-07-25T11:38:10.443Z,59.80
2018-07-25T11:40:38.556Z,57.40
2018-07-25T11:43:06.685Z,58.40
2018-07-25T11:45:34.809Z,59.40
2018-07-25T11:48:02.954Z,59.50
2018-07-25T11:50:31.123Z,59.60
2018-07-25T11:52:59.193Z,60.30
2018-07-25T11:55:27.335Z,61.40
2018-07-25T12:00:23.405Z,59.50
2018-07-25T12:02:51.602Z,59.40
2018-07-25T12:05:19.779Z,59.00
2018-07-25T12:07:47.926Z,59.00
2018-07-25T12:10:16.048Z,57.50
2018-07-25T12:12:44.191Z,56.80
2018-07-25T12:15:12.317Z,57.40
2018-07-25T12:17:40.466Z,58.40
2018-07-25T12:20:08.686Z,56.70
2018-07-25T12:22:36.821Z,58.70
2018-07-25T12:25:05.777Z,58.40
2018-07-25T12:27:33.933Z,58.00
2018-07-25T12:30:02.085Z,55.50
2018-07-25T12:32:30.229Z,54.60
2018-07-25T12:34:58.370Z,54.80
2018-07-25T12:37:26.547Z,56.00
2018-07-25T12:39:57.909Z,54.50
2018-07-25T12:42:26.062Z,56.30
2018-07-25T12:44:54.209Z,55.10
2018-07-25T12:47:22.353Z,53.60
2018-07-25T12:49:50.771Z,53.70
2018-07-25T12:52:18.942Z,53.40
2018-07-25T12:54:47.110Z,54.00
2018-07-25T12:57:15.279Z,53.00
2018-07-25T12:59:43.589Z,51.90
2018-07-25T13:02:11.802Z,53.50
2018-07-25T13:04:39.932Z,51.60
2018-07-25T13:07:08.099Z,52.80
2018-07-25T13:09:36.261Z,52.60
2018-07-25T13:12:04.457Z,51.90
2018-07-25T13:14:32.593Z,52.90
2018-07-25T13:17:00.729Z,52.50
2018-07-25T13:19:28.889Z,52.80
2018-07-25T13:21:57.021Z,52.90
2018-07-25T13:24:25.156Z,53.00
2018-07-25T13:26:53.315Z,54.00
2018-07-25T13:29:21.469Z,53.10
2018-07-25T13:31:49.613Z,54.70
2018-07-25T13:34:17.777Z,52.20
2018-07-25T13:36:45.901Z,52.40
2018-07-25T13:39:14.033Z,54.10
2018-07-25T13:41:42.189Z,53.70
2018-07-25T13:44:10.336Z,55.60
2018-07-25T13:46:38.476Z,55.70
2018-07-25T13:49:06.636Z,54.90
2018-07-25T13:51:34.781Z,57.00
2018-07-25T13:54:02.916Z,57.90
2018-07-25T13:56:31.061Z,57.20
2018-07-25T13:58:59.241Z,56.40
2018-07-25T14:01:27.388Z,56.30
2018-07-25T14:03:55.646Z,56.90
2018-07-25T14:06:23.812Z,58.00
2018-07-25T14:08:51.969Z,60.10
2018-07-25T14:11:20.108Z,61.00
2018-07-25T14:13:48.237Z,61.70
2018-07-25T14:16:17.140Z,64.40
2018-07-25T14:18:45.265Z,63.10
2018-07-25T14:23:41.793Z,60.20
2018-07-25T14:26:09.919Z,61.30
2018-07-25T14:28:38.069Z,62.30
2018-07-25T14:31:06.167Z,60.00
2018-07-25T14:33:34.289Z,60.40
2018-07-25T14:36:02.425Z,62.10
2018-07-25T14:38:30.543Z,59.20
2018-07-25T14:40:58.737Z,58.90
2018-07-25T14:43:26.927Z,57.80
2018-07-25T14:45:55.018Z,58.00
2018-07-25T14:48:23.140Z,59.70
2018-07-25T14:53:24.901Z,59.20
2018-07-25T14:55:53.054Z,59.10
2018-07-25T14:58:21.194Z,58.50
2018-07-25T15:00:49.368Z,58.90
2018-07-25T15:03:17.601Z,58.90
2018-07-25T15:05:45.748Z,59.60
2018-07-25T15:08:13.943Z,60.50
2018-07-25T15:10:42.090Z,59.30
2018-07-25T15:13:10.249Z,59.00
2018-07-25T15:15:38.378Z,59.90
2018-07-25T15:18:06.564Z,60.50
2018-07-25T15:20:34.813Z,61.40
2018-07-25T15:23:02.968Z,59.20
2018-07-25T15:25:31.133Z,59.80
2018-07-25T15:27:59.270Z,62.90
2018-07-25T15:30:27.458Z,61.60
2018-07-25T15:32:55.679Z,62.30
2018-07-25T15:35:23.864Z,61.00
2018-07-25T15:37:52.011Z,60.30
2018-07-25T15:40:20.189Z,62.10
2018-07-25T15:42:48.348Z,63.30
2018-07-25T15:45:16.517Z,63.20
2018-07-25T15:47:44.705Z,64.20
2018-07-25T15:50:12.861Z,63.80
2018-07-25T15:52:41.005Z,67.00
2018-07-25T15:55:09.229Z,63.90
2018-07-25T15:57:37.394Z,63.20
2018-07-25T16:00:06.905Z,64.00
2018-07-25T16:02:35.065Z,64.30
2018-07-25T16:05:03.200Z,63.90
2018-07-25T16:07:31.317Z,63.30
2018-07-25T16:09:59.510Z,62.20
2018-07-25T16:12:27.585Z,64.30
2018-07-25T16:14:55.726Z,64.40
2018-07-25T16:17:23.860Z,63.60
2018-07-25T16:19:51.980Z,62.40
2018-07-25T16:22:20.108Z,59.20
2018-07-25T16:24:48.240Z,57.70
2018-07-25T16:27:16.381Z,55.00
2018-07-25T16:29:44.522Z,52.40
2018-07-25T16:32:12.642Z,54.70
2018-07-25T16:34:40.803Z,52.20
2018-07-25T16:37:08.953Z,56.90
2018-07-25T16:39:37.088Z,58.00
2018-07-25T16:42:05.230Z,57.40
2018-07-25T16:44:33.372Z,56.30
2018-07-25T16:47:01.505Z,53.50
2018-07-25T16:49:29.685Z,53.70
2018-07-25T16:51:57.838Z,55.60
2018-07-25T16:54:25.976Z,56.50
2018-07-25T16:56:54.159Z,56.00
2018-07-25T16:59:22.269Z,59.30
2018-07-25T17:01:50.414Z,61.70
2018-07-25T17:04:18.550Z,63.00
2018-07-25T17:06:46.673Z,63.70
2018-07-25T17:09:14.855Z,62.90
2018-07-25T17:11:42.985Z,67.30
2018-07-25T17:14:11.114Z,69.80
2018-07-25T17:16:39.995Z,71.50
2018-07-25T17:19:08.125Z,73.10
2018-07-25T17:21:36.261Z,76.10
2018-07-25T17:24:04.382Z,77.30
2018-07-25T17:26:32.517Z,79.50
2018-07-25T17:29:00.633Z,81.30
2018-07-25T17:33:56.688Z,84.80
2018-07-25T17:36:24.827Z,87.00
2018-07-25T17:38:52.961Z,90.00
2018-07-25T17:41:21.099Z,91.10
2018-07-25T17:43:49.240Z,91.60
2018-07-25T17:46:17.377Z,91.10
2018-07-25T17:48:45.514Z,91.80
2018-07-25T17:51:13.640Z,92.60
2018-07-25T17:53:41.797Z,93.10
2018-07-25T17:56:09.923Z,93.70
2018-07-25T17:58:38.061Z,93.30
2018-07-25T18:01:06.229Z,94.10
2018-07-25T18:03:34.438Z,95.10
2018-07-25T18:06:02.572Z,95.70
2018-07-25T18:08:31.510Z,96.40
2018-07-25T18:10:59.636Z,97.10
2018-07-25T18:13:33.309Z,97.70
2018-07-25T18:16:01.453Z,98.20
2018-07-25T18:18:29.640Z,98.50
2018-07-25T18:20:58.070Z,99.90
2018-07-25T18:23:26.157Z,99.90
2018-07-25T18:25:54.331Z,99.90
2018-07-25T18:28:22.506Z,99.90
2018-07-25T18:30:50.641Z,99.90
2018-07-25T18:33:18.790Z,99.90
2018-07-25T18:35:46.971Z,99.90
2018-07-25T18:38:15.078Z,99.90
2018-07-25T18:40:43.229Z,99.90
2018-07-25T18:43:11.397Z,99.90
2018-07-25T18:45:39.622Z,99.90
2018-07-25T18:48:07.788Z,99.90
2018-07-25T18:50:35.924Z,99.90
2018-07-25T18:53:04.250Z,99.90
2018-07-25T18:55:32.398Z,99.90
2018-07-25T18:58:00.541Z,99.90
2018-07-25T19:00:29.665Z,99.90
2018-07-25T19:02:57.808Z,99.90
2018-07-25T19:05:29.867Z,99.90
2018-07-25T19:07:58.408Z,99.90
2018-07-25T19:10:26.561Z,99.90
2018-07-25T19:12:55.131Z,99.90
2018-07-25T19:15:28.725Z,99.90
2018-07-25T19:17:56.840Z,99.90
2018-07-25T19:20:25.007Z,99.90
2018-07-25T19:22:53.265Z,99.90
2018-07-25T19:25:21.877Z,99.90
2018-07-25T19:27:50.189Z,99.90
2018-07-25T19:30:18.489Z,99.90
2018-07-25T19:32:46.601Z,99.90
2018-07-25T19:35:14.869Z,99.90
2018-07-25T19:37:43.038Z,99.90
2018-07-25T19:40:11.222Z,99.90
2018-07-25T19:42:39.306Z,99.90
2018-07-25T19:45:07.505Z,99.90
2018-07-25T19:47:35.646Z,99.90
2018-07-25T19:50:03.801Z,99.90
2018-07-25T19:52:31.927Z,99.90
2018-07-25T19:55:00.102Z,99.90
2018-07-25T19:57:28.220Z,99.90
2018-07-25T19:59:56.477Z,99.90
2018-07-25T20:02:24.714Z,99.90
2018-07-25T20:04:52.828Z,99.90
2018-07-25T20:07:21.020Z,99.90
2018-07-25T20:09:49.139Z,99.90
2018-07-25T20:12:17.549Z,99.90
2018-07-25T20:14:51.294Z,99.90
2018-07-25T20:17:19.841Z,99.90
2018-07-25T20:19:48.137Z,99.90
2018-07-25T20:22:16.197Z,99.90
2018-07-25T20:24:44.318Z,99.90
2018-07-25T20:27:12.607Z,99.90
2018-07-25T20:29:40.879Z,99.90
2018-07-25T20:32:09.075Z,99.90
2018-07-25T20:34:37.244Z,99.90
2018-07-25T20:37:05.656Z,99.90
2018-07-25T20:42:02.012Z,99.90
2018-07-25T20:44:30.234Z,99.90
2018-07-25T20:46:58.456Z,99.90
2018-07-25T20:49:26.670Z,99.90
2018-07-25T20:51:54.905Z,99.90
2018-07-25T20:54:23.114Z,99.90
2018-07-25T20:56:51.277Z,99.90
2018-07-25T20:59:19.491Z,99.90
2018-07-25T21:01:47.647Z,99.90
2018-07-25T21:04:16.333Z,99.90
2018-07-25T21:06:48.187Z,99.90
2018-07-25T21:09:16.324Z,99.90
2018-07-25T21:11:44.759Z,99.90
2018-07-25T21:14:12.973Z,99.90
2018-07-25T21:16:41.215Z,99.90
2018-07-25T21:19:09.506Z,99.90
2018-07-25T21:21:37.756Z,99.90
2018-07-25T21:24:06.276Z,99.90
2018-07-25T21:26:34.733Z,99.90
2018-07-25T21:29:02.979Z,99.90
2018-07-25T21:31:31.277Z,99.90
2018-07-25T21:33:59.414Z,99.90
2018-07-25T21:36:27.671Z,99.90
2018-07-25T21:38:55.930Z,99.90
2018-07-25T21:41:24.058Z,99.90
2018-07-25T21:43:52.208Z,99.90
2018-07-25T21:46:20.393Z,99.90
2018-07-25T21:48:48.632Z,99.90
2018-07-25T21:51:16.786Z,99.90
2018-07-25T21:53:44.950Z,99.90
2018-07-25T21:56:13.187Z,99.90
2018-07-25T21:58:41.295Z,99.90
2018-07-25T22:01:13.265Z,99.90
2018-07-25T22:03:41.571Z,99.90
2018-07-25T22:06:09.721Z,99.90
2018-07-25T22:08:37.866Z,99.90
2018-07-25T22:11:06.013Z,99.90
2018-07-25T22:13:34.140Z,99.90
2018-07-25T22:16:02.261Z,99.90
2018-07-25T22:18:30.438Z,99.90
2018-07-25T22:20:58.573Z,99.90
2018-07-25T22:23:26.725Z,99.90
2018-07-25T22:25:54.862Z,99.90
2018-07-25T22:28:23.049Z,99.90
2018-07-25T22:30:51.186Z,99.90
2018-07-25T22:33:19.360Z,99.90
2018-07-25T22:35:47.481Z,99.90
2018-07-25T22:38:15.641Z,99.90
2018-07-25T22:40:43.777Z,99.90
2018-07-25T22:43:11.958Z,99.90
2018-07-25T22:45:40.078Z,99.90
2018-07-25T22:48:08.321Z,99.90
2018-07-25T22:50:36.453Z,99.90
2018-07-25T22:53:04.593Z,99.90
2018-07-25T22:55:32.755Z,99.90
2018-07-25T22:58:00.888Z,99.90
2018-07-25T23:00:29.026Z,99.90
2018-07-25T23:02:57.158Z,99.90
2018-07-25T23:05:25.308Z,99.90
2018-07-25T23:07:53.443Z,99.90
2018-07-25T23:10:21.560Z,99.90
2018-07-25T23:12:49.702Z,99.90
2018-07-25T23:15:17.837Z,99.90
2018-07-25T23:17:45.989Z,99.90
2018-07-25T23:20:14.121Z,99.90
2018-07-25T23:22:50.975Z,99.90
2018-07-25T23:25:19.114Z,99.90
2018-07-25T23:27:47.274Z,99.90
2018-07-25T23:30:15.535Z,99.90
2018-07-25T23:32:43.662Z,99.90
2018-07-25T23:35:11.790Z,99.90
2018-07-25T23:37:39.950Z,99.90
2018-07-25T23:40:08.080Z,99.90
2018-07-25T23:42:36.248Z,99.90
2018-07-25T23:45:04.420Z,99.90
2018-07-25T23:47:32.558Z,99.90
2018-07-25T23:50:00.689Z,99.90
2018-07-25T23:52:28.912Z,99.90
2018-07-25T23:54:57.056Z,99.90
2018-07-25T23:57:25.217Z,99.90
2018-07-25T23:59:53.353Z,99.90
